Al Hamla — V7MX9 — position and weather

sailwx.info

Track history (hours):
 
Tides and Currents Weather Stations Pressure Air Temp Water Temp Dewpoint Dewpoint Depression Visibility Wind Speed Wind Dir Waves Ship Positions

Al Hamla

Last reported at 2018-Apr-26 16:07 UTC. Time now 2018-Apr-26 16:46 UTC.
Position N 52°18' E 002°43'.

Length 315 m; draft 9.8 m.

Type: Ship (hazmat cat D). MMSI: 538002922.

Date/timePositionNaut miles runAvg speedWind from/ knotsBaromVisibWave heightAir tempDewpointWater temp
2018-Apr-26 16:07N 52°18' E 002°43'13216.6
2018-Apr-26 08:10N 54°12' E 004°35'317.2
2018-Apr-26 07:58N 54°15' E 004°38'917.1
2018-Apr-26 07:29N 54°22' E 004°46'817.1
2018-Apr-26 07:00N 54°29' E 004°54'917.1
2018-Apr-26 06:29N 54°37' E 005°01'22617.0
2018-Apr-25 17:10N 57°37' E 009°07'617.0
2018-Apr-25 16:50N 57°39' E 009°17'1216.9
2018-Apr-25 16:07N 57°45' E 009°36'217.1
2018-Apr-25 16:00N 57°47' E 009°39'817.1
2018-Apr-25 15:30N 57°51' E 009°53'917.1
2018-Apr-25 15:00N 57°51' E 010°09'816.9
2018-Apr-25 14:30N 57°51' E 010°25'816.3
2018-Apr-25 14:00N 57°50' E 010°40'715.3
2018-Apr-25 13:30N 57°45' E 010°51'510.1
2018-Apr-25 13:00N 57°42' E 010°58'714.0
2018-Apr-25 12:31N 57°37' E 011°08'917.7
2018-Apr-25 12:01N 57°31' E 011°20'918.0
2018-Apr-25 11:30N 57°24' E 011°29'918.6
2018-Apr-25 11:00N 57°15' E 011°34'918.7
2018-Apr-25 10:30N 57°06' E 011°40'918.8
2018-Apr-25 10:00N 56°57' E 011°47'9516.6
2018-Apr-25 04:17N 55°27' E 010°58'516.5
2018-Apr-25 04:00N 55°23' E 011°02'612.3
2018-Apr-25 03:30N 55°17' E 011°04'612.3
2018-Apr-25 03:00N 55°11' E 011°04'612.8
2018-Apr-25 02:30N 55°04' E 011°02'713.1
2018-Apr-25 02:00N 54°58' E 010°58'510.5
2018-Apr-25 01:30N 54°54' E 010°52'611.1
2018-Apr-25 01:00N 54°49' E 010°50'612.4
2018-Apr-25 00:31N 54°43' E 010°46'612.8
2018-Apr-25 00:00N 54°38' E 010°54'714.1
2018-Apr-24 23:30N 54°36' E 011°05'714.2
2018-Apr-24 23:00N 54°34' E 011°17'714.9
2018-Apr-24 22:30N 54°31' E 011°28'714.9
2018-Apr-24 22:00N 54°28' E 011°40'714.5
2018-Apr-24 21:30N 54°26' E 011°52'714.3
2018-Apr-24 20:59N 54°26' E 012°05'510.9
2018-Apr-24 20:30N 54°29' E 012°13'510.8
2018-Apr-24 20:00N 54°34' E 012°15'62 1.2
2018-Apr-22 16:31N 54°20' E 013°58'3 7.6
2018-Apr-22 16:05N 54°22' E 013°55'15 8.8
2018-Apr-22 14:21N 54°36' E 013°43'1713.3
2018-Apr-22 13:02N 54°46' E 013°18'314.7
2018-Apr-22 12:48N 54°46' E 013°13'414.6
2018-Apr-22 12:31N 54°46' E 013°05'1313.9
2018-Apr-22 11:33N 54°46' E 012°42'113.3
2018-Apr-22 11:28N 54°45' E 012°41'1013.5
2018-Apr-22 10:45N 54°40' E 012°27'513.7
2018-Apr-22 10:25N 54°37' E 012°20'811.8
2018-Apr-22 09:46N 54°30' E 012°14'415.1
2018-Apr-22 09:30N 54°27' E 012°12'713.9
2018-Apr-22 09:00N 54°25' E 012°00'815.2
2018-Apr-22 08:31N 54°25' E 011°47'815.5
2018-Apr-22 08:00N 54°28' E 011°35'815.8
2018-Apr-22 07:31N 54°32' E 011°23'815.9
2018-Apr-22 07:01N 54°35' E 011°10'815.5
2018-Apr-22 06:30N 54°36' E 010°57'815.4
2018-Apr-22 06:00N 54°41' E 010°47'816.2
2018-Apr-22 05:30N 54°49' E 010°50'816.3
2018-Apr-22 05:01N 54°57' E 010°54'815.0
2018-Apr-22 04:30N 55°03' E 010°60'815.1
2018-Apr-22 04:00N 55°11' E 011°02'612.8
2018-Apr-22 03:31N 55°17' E 011°03'1115.4
2018-Apr-22 02:49N 55°27' E 010°56'1315.9
2018-Apr-22 01:58N 55°39' E 010°46'3414.2
2018-Apr-21 23:35N 56°09' E 011°14'3014.4
2018-Apr-21 21:28N 56°35' E 011°42'714.6
2018-Apr-21 20:58N 56°42' E 011°49'714.3
2018-Apr-21 20:28N 56°49' E 011°49'715.1
2018-Apr-21 20:00N 56°56' E 011°46'815.1
2018-Apr-21 19:30N 57°03' E 011°41'815.1
2018-Apr-21 19:00N 57°10' E 011°36'714.9
2018-Apr-21 18:30N 57°17' E 011°31'714.9
2018-Apr-21 18:00N 57°24' E 011°26'714.7
2018-Apr-21 17:30N 57°30' E 011°19'714.9
2018-Apr-21 17:00N 57°35' E 011°09'815.2
2018-Apr-21 16:31N 57°39' E 010°56'714.5
2018-Apr-21 16:00N 57°40' E 010°43'2 4.6
2018-Apr-21 15:28N 57°41' E 010°39'0 0.2
2018-Apr-21 14:55N 57°41' E 010°39'0 0.0
2018-Apr-21 14:28N 57°41' E 010°39'0 0.0
2018-Apr-21 13:49N 57°41' E 010°39'0 0.0
2018-Apr-21 13:28N 57°41' E 010°39'0 0.0
2018-Apr-21 12:55N 57°41' E 010°39'0 0.0
2018-Apr-21 12:28N 57°41' E 010°39'0 0.0
2018-Apr-21 11:58N 57°41' E 010°39'0 0.0
2018-Apr-21 11:28N 57°41' E 010°39'0 0.0
2018-Apr-21 10:58N 57°41' E 010°39'0 0.0
2018-Apr-21 10:28N 57°41' E 010°39'0 0.0
2018-Apr-21 09:52N 57°41' E 010°39'0 0.0
2018-Apr-21 09:25N 57°41' E 010°39'0 0.0
2018-Apr-21 08:55N 57°41' E 010°39'0 0.1
2018-Apr-21 08:28N 57°41' E 010°39'0 0.1
2018-Apr-21 07:46N 57°41' E 010°39'0 0.1
2018-Apr-21 07:28N 57°41' E 010°39'0 0.0
2018-Apr-21 06:55N 57°41' E 010°39'0 0.2
2018-Apr-21 06:28N 57°41' E 010°39'0 0.0
2018-Apr-21 05:55N 57°41' E 010°39'0 0.0
2018-Apr-21 05:28N 57°41' E 010°39'0 0.0
2018-Apr-21 04:58N 57°41' E 010°39'0 0.0
2018-Apr-21 04:28N 57°41' E 010°39'0 0.3
2018-Apr-21 04:00N 57°41' E 010°39'1 1.7
2018-Apr-21 03:30N 57°42' E 010°40'4 7.2
2018-Apr-21 03:00N 57°44' E 010°45'612.1
2018-Apr-21 02:30N 57°48' E 010°36'917.5
2018-Apr-21 02:00N 57°50' E 010°19'817.0
2018-Apr-21 01:30N 57°50' E 010°04'816.1
2018-Apr-21 01:01N 57°49' E 009°49'815.2
2018-Apr-21 00:30N 57°46' E 009°36'815.2
2018-Apr-21 00:00N 57°43' E 009°23'815.6
2018-Apr-20 23:30N 57°39' E 009°10'815.6
2018-Apr-20 23:00N 57°36' E 008°57'815.6
2018-Apr-20 22:30N 57°33' E 008°43'815.5
2018-Apr-20 22:00N 57°28' E 008°32'915.5
2018-Apr-20 21:27N 57°24' E 008°19'715.6
2018-Apr-20 21:00N 57°20' E 008°07'815.7
2018-Apr-20 20:29N 57°16' E 007°54'2215.0
2018-Apr-20 19:02N 56°60' E 007°29'115.7
2018-Apr-20 18:59N 56°59' E 007°28'28912.4
2018-Apr-19 19:38N 52°49' E 003°15'215.3
2018-Apr-19 19:30N 52°47' E 003°14'2115.8
2018-Apr-19 18:11N 52°29' E 002°57'516.5
2018-Apr-19 17:51N 52°24' E 002°53'616.6
2018-Apr-19 17:30N 52°19' E 002°48'1916.1
2018-Apr-19 16:20N 52°00' E 002°42'617.3
2018-Apr-19 15:58N 51°54' E 002°44'716.3
2018-Apr-19 15:31N 51°48' E 002°38'816.5
2018-Apr-19 15:00N 51°42' E 002°29'816.3
2018-Apr-19 14:30N 51°36' E 002°20'816.3
2018-Apr-19 14:00N 51°29' E 002°12'816.0
2018-Apr-19 13:31N 51°23' E 002°04'714.2
2018-Apr-19 13:01N 51°18' E 001°56'815.8
2018-Apr-19 12:30N 51°12' E 001°48'815.3
2018-Apr-19 12:00N 51°06' E 001°41'815.5
2018-Apr-19 11:30N 50°60' E 001°33'715.0
2018-Apr-19 11:00N 50°54' E 001°26'713.6
2018-Apr-19 10:30N 50°47' E 001°24'613.1
2018-Apr-19 10:01N 50°41' E 001°20'714.0
2018-Apr-19 09:30N 50°37' E 001°11'714.0
2018-Apr-19 09:00N 50°32' E 001°03'713.3
2018-Apr-19 08:31N 50°29' E 000°54'713.8
2018-Apr-19 08:00N 50°28' E 000°43'713.6
2018-Apr-19 07:29N 50°26' E 000°32'613.3
2018-Apr-19 07:00N 50°25' E 000°23'713.1
2018-Apr-19 06:30N 50°23' E 000°12'713.0
2018-Apr-19 05:57N 50°20' E 000°02'612.8
2018-Apr-19 05:30N 50°18' W 000°06'612.6
2018-Apr-19 05:00N 50°16' W 000°16'1212.0
2018-Apr-19 04:01N 50°13' W 000°34'012.0
2018-Apr-19 04:00N 50°13' W 000°34'611.5
2018-Apr-19 03:30N 50°11' W 000°42'611.5
2018-Apr-19 03:00N 50°11' W 000°51'611.8
2018-Apr-19 02:30N 50°09' W 001°00'612.3
2018-Apr-19 02:00N 50°08' W 001°09'713.2
2018-Apr-19 01:30N 50°06' W 001°19'713.9
2018-Apr-19 01:01N 50°04' W 001°30'714.7
2018-Apr-19 00:30N 50°02' W 001°41'815.6
2018-Apr-19 00:00N 49°60' W 001°52'816.3
2018-Apr-18 23:30N 49°58' W 002°05'916.7
2018-Apr-18 22:59N 49°56' W 002°18'816.6
2018-Apr-18 22:29N 49°55' W 002°31'816.4
2018-Apr-18 22:00N 49°53' W 002°43'816.4
2018-Apr-18 21:30N 49°50' W 002°55'816.4
2018-Apr-18 21:00N 49°47' W 003°06'816.3
2018-Apr-18 20:31N 49°43' W 003°17'816.5
2018-Apr-18 20:01N 49°39' W 003°28'816.5
2018-Apr-18 19:30N 49°35' W 003°39'1216.3
2018-Apr-18 18:48N 49°27' W 003°53'10014.5
2018-Apr-18 11:53N 48°26' W 005°54'1313.3
2018-Apr-18 10:53N 48°14' W 006°02'1813.1
2018-Apr-18 09:30N 47°57' W 006°13'2414.0
2018-Apr-18 07:48N 47°37' W 006°30'515.4
2018-Apr-18 07:30N 47°33' W 006°34'714.5
2018-Apr-18 07:00N 47°27' W 006°40'49714.1
2018-Apr-16 19:46N 39°31' W 009°58'414.2
2018-Apr-16 19:30N 39°28' W 009°58'814.1
2018-Apr-16 18:58N 39°20' W 009°58'613.9
2018-Apr-16 18:31N 39°14' W 009°57'714.0
2018-Apr-16 18:00N 39°07' W 009°57'714.1
2018-Apr-16 17:30N 38°60' W 009°57'713.7
2018-Apr-16 17:00N 38°53' W 009°57'714.1
2018-Apr-16 16:31N 38°46' W 009°57'  
Track history (hours):
 
Tides and Currents Weather Stations Pressure Air Temp Water Temp Dewpoint Dewpoint Depression Visibility Wind Speed Wind Dir Waves Ship Positions

Al Hamla

Last reported at 2018-Apr-26 16:07 UTC. Time now 2018-Apr-26 16:46 UTC.
Position N 52°18' E 002°43'.

Length 315 m; draft 9.8 m.

Type: Ship (hazmat cat D). MMSI: 538002922.

Date/timePositionNaut miles runAvg speedWind from/ knotsBaromVisibWave heightAir tempDewpointWater temp
2018-Apr-26 16:07N 52°18' E 002°43'13216.6
2018-Apr-26 08:10N 54°12' E 004°35'317.2
2018-Apr-26 07:58N 54°15' E 004°38'917.1
2018-Apr-26 07:29N 54°22' E 004°46'817.1
2018-Apr-26 07:00N 54°29' E 004°54'917.1
2018-Apr-26 06:29N 54°37' E 005°01'22617.0
2018-Apr-25 17:10N 57°37' E 009°07'617.0
2018-Apr-25 16:50N 57°39' E 009°17'1216.9
2018-Apr-25 16:07N 57°45' E 009°36'217.1
2018-Apr-25 16:00N 57°47' E 009°39'817.1
2018-Apr-25 15:30N 57°51' E 009°53'917.1
2018-Apr-25 15:00N 57°51' E 010°09'816.9
2018-Apr-25 14:30N 57°51' E 010°25'816.3
2018-Apr-25 14:00N 57°50' E 010°40'715.3
2018-Apr-25 13:30N 57°45' E 010°51'510.1
2018-Apr-25 13:00N 57°42' E 010°58'714.0
2018-Apr-25 12:31N 57°37' E 011°08'917.7
2018-Apr-25 12:01N 57°31' E 011°20'918.0
2018-Apr-25 11:30N 57°24' E 011°29'918.6
2018-Apr-25 11:00N 57°15' E 011°34'918.7
2018-Apr-25 10:30N 57°06' E 011°40'918.8
2018-Apr-25 10:00N 56°57' E 011°47'9516.6
2018-Apr-25 04:17N 55°27' E 010°58'516.5
2018-Apr-25 04:00N 55°23' E 011°02'612.3
2018-Apr-25 03:30N 55°17' E 011°04'612.3
2018-Apr-25 03:00N 55°11' E 011°04'612.8
2018-Apr-25 02:30N 55°04' E 011°02'713.1
2018-Apr-25 02:00N 54°58' E 010°58'510.5
2018-Apr-25 01:30N 54°54' E 010°52'611.1
2018-Apr-25 01:00N 54°49' E 010°50'612.4
2018-Apr-25 00:31N 54°43' E 010°46'612.8
2018-Apr-25 00:00N 54°38' E 010°54'714.1
2018-Apr-24 23:30N 54°36' E 011°05'714.2
2018-Apr-24 23:00N 54°34' E 011°17'714.9
2018-Apr-24 22:30N 54°31' E 011°28'714.9
2018-Apr-24 22:00N 54°28' E 011°40'714.5
2018-Apr-24 21:30N 54°26' E 011°52'714.3
2018-Apr-24 20:59N 54°26' E 012°05'510.9
2018-Apr-24 20:30N 54°29' E 012°13'510.8
2018-Apr-24 20:00N 54°34' E 012°15'62 1.2
2018-Apr-22 16:31N 54°20' E 013°58'3 7.6
2018-Apr-22 16:05N 54°22' E 013°55'15 8.8
2018-Apr-22 14:21N 54°36' E 013°43'1713.3
2018-Apr-22 13:02N 54°46' E 013°18'314.7
2018-Apr-22 12:48N 54°46' E 013°13'414.6
2018-Apr-22 12:31N 54°46' E 013°05'1313.9
2018-Apr-22 11:33N 54°46' E 012°42'113.3
2018-Apr-22 11:28N 54°45' E 012°41'1013.5
2018-Apr-22 10:45N 54°40' E 012°27'513.7
2018-Apr-22 10:25N 54°37' E 012°20'811.8
2018-Apr-22 09:46N 54°30' E 012°14'415.1
2018-Apr-22 09:30N 54°27' E 012°12'713.9
2018-Apr-22 09:00N 54°25' E 012°00'815.2
2018-Apr-22 08:31N 54°25' E 011°47'815.5
2018-Apr-22 08:00N 54°28' E 011°35'815.8
2018-Apr-22 07:31N 54°32' E 011°23'815.9
2018-Apr-22 07:01N 54°35' E 011°10'815.5
2018-Apr-22 06:30N 54°36' E 010°57'815.4
2018-Apr-22 06:00N 54°41' E 010°47'816.2
2018-Apr-22 05:30N 54°49' E 010°50'816.3
2018-Apr-22 05:01N 54°57' E 010°54'815.0
2018-Apr-22 04:30N 55°03' E 010°60'815.1
2018-Apr-22 04:00N 55°11' E 011°02'612.8
2018-Apr-22 03:31N 55°17' E 011°03'1115.4
2018-Apr-22 02:49N 55°27' E 010°56'1315.9
2018-Apr-22 01:58N 55°39' E 010°46'3414.2
2018-Apr-21 23:35N 56°09' E 011°14'3014.4
2018-Apr-21 21:28N 56°35' E 011°42'714.6
2018-Apr-21 20:58N 56°42' E 011°49'714.3
2018-Apr-21 20:28N 56°49' E 011°49'715.1
2018-Apr-21 20:00N 56°56' E 011°46'815.1
2018-Apr-21 19:30N 57°03' E 011°41'815.1
2018-Apr-21 19:00N 57°10' E 011°36'714.9
2018-Apr-21 18:30N 57°17' E 011°31'714.9
2018-Apr-21 18:00N 57°24' E 011°26'714.7
2018-Apr-21 17:30N 57°30' E 011°19'714.9
2018-Apr-21 17:00N 57°35' E 011°09'815.2
2018-Apr-21 16:31N 57°39' E 010°56'714.5
2018-Apr-21 16:00N 57°40' E 010°43'2 4.6
2018-Apr-21 15:28N 57°41' E 010°39'0 0.2
2018-Apr-21 14:55N 57°41' E 010°39'0 0.0
2018-Apr-21 14:28N 57°41' E 010°39'0 0.0
2018-Apr-21 13:49N 57°41' E 010°39'0 0.0
2018-Apr-21 13:28N 57°41' E 010°39'0 0.0
2018-Apr-21 12:55N 57°41' E 010°39'0 0.0
2018-Apr-21 12:28N 57°41' E 010°39'0 0.0
2018-Apr-21 11:58N 57°41' E 010°39'0 0.0
2018-Apr-21 11:28N 57°41' E 010°39'0 0.0
2018-Apr-21 10:58N 57°41' E 010°39'0 0.0
2018-Apr-21 10:28N 57°41' E 010°39'0 0.0
2018-Apr-21 09:52N 57°41' E 010°39'0 0.0
2018-Apr-21 09:25N 57°41' E 010°39'0 0.0
2018-Apr-21 08:55N 57°41' E 010°39'0 0.1
2018-Apr-21 08:28N 57°41' E 010°39'0 0.1
2018-Apr-21 07:46N 57°41' E 010°39'0 0.1
2018-Apr-21 07:28N 57°41' E 010°39'0 0.0
2018-Apr-21 06:55N 57°41' E 010°39'0 0.2
2018-Apr-21 06:28N 57°41' E 010°39'0 0.0
2018-Apr-21 05:55N 57°41' E 010°39'0 0.0
2018-Apr-21 05:28N 57°41' E 010°39'0 0.0
2018-Apr-21 04:58N 57°41' E 010°39'0 0.0
2018-Apr-21 04:28N 57°41' E 010°39'0 0.3
2018-Apr-21 04:00N 57°41' E 010°39'1 1.7
2018-Apr-21 03:30N 57°42' E 010°40'4 7.2
2018-Apr-21 03:00N 57°44' E 010°45'612.1
2018-Apr-21 02:30N 57°48' E 010°36'917.5
2018-Apr-21 02:00N 57°50' E 010°19'817.0
2018-Apr-21 01:30N 57°50' E 010°04'816.1
2018-Apr-21 01:01N 57°49' E 009°49'815.2
2018-Apr-21 00:30N 57°46' E 009°36'815.2
2018-Apr-21 00:00N 57°43' E 009°23'815.6
2018-Apr-20 23:30N 57°39' E 009°10'815.6
2018-Apr-20 23:00N 57°36' E 008°57'815.6
2018-Apr-20 22:30N 57°33' E 008°43'815.5
2018-Apr-20 22:00N 57°28' E 008°32'915.5
2018-Apr-20 21:27N 57°24' E 008°19'715.6
2018-Apr-20 21:00N 57°20' E 008°07'815.7
2018-Apr-20 20:29N 57°16' E 007°54'2215.0
2018-Apr-20 19:02N 56°60' E 007°29'115.7
2018-Apr-20 18:59N 56°59' E 007°28'28912.4
2018-Apr-19 19:38N 52°49' E 003°15'215.3
2018-Apr-19 19:30N 52°47' E 003°14'2115.8
2018-Apr-19 18:11N 52°29' E 002°57'516.5
2018-Apr-19 17:51N 52°24' E 002°53'616.6
2018-Apr-19 17:30N 52°19' E 002°48'1916.1
2018-Apr-19 16:20N 52°00' E 002°42'617.3
2018-Apr-19 15:58N 51°54' E 002°44'716.3
2018-Apr-19 15:31N 51°48' E 002°38'816.5
2018-Apr-19 15:00N 51°42' E 002°29'816.3
2018-Apr-19 14:30N 51°36' E 002°20'816.3
2018-Apr-19 14:00N 51°29' E 002°12'816.0
2018-Apr-19 13:31N 51°23' E 002°04'714.2
2018-Apr-19 13:01N 51°18' E 001°56'815.8
2018-Apr-19 12:30N 51°12' E 001°48'815.3
2018-Apr-19 12:00N 51°06' E 001°41'815.5
2018-Apr-19 11:30N 50°60' E 001°33'715.0
2018-Apr-19 11:00N 50°54' E 001°26'713.6
2018-Apr-19 10:30N 50°47' E 001°24'613.1
2018-Apr-19 10:01N 50°41' E 001°20'714.0
2018-Apr-19 09:30N 50°37' E 001°11'714.0
2018-Apr-19 09:00N 50°32' E 001°03'713.3
2018-Apr-19 08:31N 50°29' E 000°54'713.8
2018-Apr-19 08:00N 50°28' E 000°43'713.6
2018-Apr-19 07:29N 50°26' E 000°32'613.3
2018-Apr-19 07:00N 50°25' E 000°23'713.1
2018-Apr-19 06:30N 50°23' E 000°12'713.0
2018-Apr-19 05:57N 50°20' E 000°02'612.8
2018-Apr-19 05:30N 50°18' W 000°06'612.6
2018-Apr-19 05:00N 50°16' W 000°16'1212.0
2018-Apr-19 04:01N 50°13' W 000°34'012.0
2018-Apr-19 04:00N 50°13' W 000°34'611.5
2018-Apr-19 03:30N 50°11' W 000°42'611.5
2018-Apr-19 03:00N 50°11' W 000°51'611.8
2018-Apr-19 02:30N 50°09' W 001°00'612.3
2018-Apr-19 02:00N 50°08' W 001°09'713.2
2018-Apr-19 01:30N 50°06' W 001°19'713.9
2018-Apr-19 01:01N 50°04' W 001°30'714.7
2018-Apr-19 00:30N 50°02' W 001°41'815.6
2018-Apr-19 00:00N 49°60' W 001°52'816.3
2018-Apr-18 23:30N 49°58' W 002°05'916.7
2018-Apr-18 22:59N 49°56' W 002°18'816.6
2018-Apr-18 22:29N 49°55' W 002°31'816.4
2018-Apr-18 22:00N 49°53' W 002°43'816.4
2018-Apr-18 21:30N 49°50' W 002°55'816.4
2018-Apr-18 21:00N 49°47' W 003°06'816.3
2018-Apr-18 20:31N 49°43' W 003°17'816.5
2018-Apr-18 20:01N 49°39' W 003°28'816.5
2018-Apr-18 19:30N 49°35' W 003°39'1216.3
2018-Apr-18 18:48N 49°27' W 003°53'10014.5
2018-Apr-18 11:53N 48°26' W 005°54'1313.3
2018-Apr-18 10:53N 48°14' W 006°02'1813.1
2018-Apr-18 09:30N 47°57' W 006°13'2414.0
2018-Apr-18 07:48N 47°37' W 006°30'515.4
2018-Apr-18 07:30N 47°33' W 006°34'714.5
2018-Apr-18 07:00N 47°27' W 006°40'49714.1
2018-Apr-16 19:46N 39°31' W 009°58'414.2
2018-Apr-16 19:30N 39°28' W 009°58'814.1
2018-Apr-16 18:58N 39°20' W 009°58'613.9
2018-Apr-16 18:31N 39°14' W 009°57'714.0
2018-Apr-16 18:00N 39°07' W 009°57'714.1
2018-Apr-16 17:30N 38°60' W 009°57'713.7
2018-Apr-16 17:00N 38°53' W 009°57'714.1
2018-Apr-16 16:31N 38°46' W 009°57'  

Dump ship's entire track history